Time;durP1;ratioP1;P1;durP2;ratioP2;P2;SDS_P1;SDS_P2;PMS_P1;PMS_P2;Temp;Humidity;BMP_temperature;BMP_pressure;BME280_temperature;BME280_humidity;BME280_pressure;Samples;Min_cycle;Max_cycle;Signal;HPM_P1;HPM_P2
2021/11/20 00:02:00;;;;;;;18.08;13.02;;;;;;;;;;5066909;28;20025;-61
2021/11/20 00:04:46;;;;;;;16.83;11.48;;;;;;;;;;5068164;28;20020;-61
2021/11/20 00:07:31;;;;;;;19.90;13.95;;;;;;;;;;5067025;28;20017;-64
2021/11/20 00:10:19;;;;;;;17.45;12.15;;;;;;;;;;5068053;28;20036;-64
2021/11/20 00:13:09;;;;;;;17.67;12.35;;;;;;;;;;5067369;28;20043;-64
2021/11/20 00:15:56;;;;;;;15.80;10.95;;;;;;;;;;5061083;28;20492;-70
2021/11/20 00:18:42;;;;;;;15.43;10.93;;;;;;;;;;5052079;28;20040;-66
2021/11/20 00:21:30;;;;;;;16.77;11.70;;;;;;;;;;5065784;28;20035;-67
2021/11/20 00:24:35;;;;;;;14.52;10.93;;;;;;;;;;5066741;28;20459;-68
2021/11/20 00:27:24;;;;;;;16.60;11.50;;;;;;;;;;5066608;28;20657;-67
2021/11/20 00:30:14;;;;;;;19.02;12.63;;;;;;;;;;5057070;28;20367;-67
2021/11/20 00:33:01;;;;;;;17.77;11.88;;;;;;;;;;5051742;28;20543;-66
2021/11/20 00:35:46;;;;;;;16.85;11.77;;;;;;;;;;5069201;28;20033;-61
2021/11/20 00:38:32;;;;;;;16.45;11.65;;;;;;;;;;5057700;28;20028;-69
2021/11/20 00:41:20;;;;;;;15.82;11.20;;;;;;;;;;5071398;28;20028;-70
2021/11/20 00:44:05;;;;;;;15.88;10.98;;;;;;;;;;5070185;28;20104;-68
2021/11/20 00:46:51;;;;;;;15.73;10.82;;;;;;;;;;5071143;28;20020;-70
2021/11/20 00:49:36;;;;;;;16.95;11.90;;;;;;;;;;5071143;28;20032;-69
2021/11/20 00:52:22;;;;;;;16.70;12.13;;;;;;;;;;5068097;28;20437;-69
2021/11/20 00:55:07;;;;;;;16.65;11.90;;;;;;;;;;5068652;28;20032;-66
2021/11/20 00:57:54;;;;;;;15.13;9.95;;;;;;;;;;5071110;28;20060;-65
2021/11/20 01:00:40;;;;;;;17.20;12.30;;;;;;;;;;5070337;28;20052;-64
2021/11/20 01:03:26;;;;;;;15.52;11.02;;;;;;;;;;5071380;28;20391;-66
2021/11/20 01:06:12;;;;;;;16.95;11.57;;;;;;;;;;5064251;28;20081;-64
2021/11/20 01:08:58;;;;;;;17.58;12.32;;;;;;;;;;5068243;28;20025;-64
2021/11/20 01:11:46;;;;;;;16.55;10.98;;;;;;;;;;5075908;28;20115;-64
2021/11/20 01:14:32;;;;;;;16.15;11.05;;;;;;;;;;5076384;28;20598;-63
2021/11/20 01:17:18;;;;;;;16.58;11.68;;;;;;;;;;5071707;28;20127;-65
2021/11/20 01:20:05;;;;;;;15.75;11.07;;;;;;;;;;5067347;28;20029;-64
2021/11/20 01:22:51;;;;;;;18.70;13.13;;;;;;;;;;5061044;28;20033;-67
2021/11/20 01:25:36;;;;;;;17.90;12.50;;;;;;;;;;5067056;28;20027;-63
2021/11/20 01:28:23;;;;;;;18.23;12.77;;;;;;;;;;5082037;28;20227;-64
2021/11/20 01:31:11;;;;;;;17.80;12.88;;;;;;;;;;5082079;28;20422;-72
2021/11/20 01:33:57;;;;;;;18.60;11.97;;;;;;;;;;5069801;28;20049;-62
2021/11/20 01:36:42;;;;;;;17.63;12.07;;;;;;;;;;5069822;28;20037;-61
2021/11/20 01:39:29;;;;;;;18.52;12.02;;;;;;;;;;5069493;28;20060;-64
2021/11/20 01:42:16;;;;;;;17.92;11.57;;;;;;;;;;5069610;28;20464;-64
2021/11/20 01:45:12;;;;;;;17.48;11.85;;;;;;;;;;5069978;28;20021;-63
2021/11/20 01:48:17;;;;;;;18.50;12.85;;;;;;;;;;5054631;28;20028;-68
2021/11/20 01:51:09;;;;;;;16.80;12.43;;;;;;;;;;5068700;28;20036;-63
2021/11/20 01:54:13;;;;;;;19.20;13.32;;;;;;;;;;5069627;28;20032;-61
2021/11/20 01:56:58;;;;;;;18.42;13.13;;;;;;;;;;5069063;28;20051;-60
2021/11/20 01:59:51;;;;;;;20.15;13.35;;;;;;;;;;5069887;28;20067;-61
2021/11/20 02:02:39;;;;;;;21.30;13.77;;;;;;;;;;5069233;28;20048;-59
2021/11/20 02:05:31;;;;;;;17.10;12.05;;;;;;;;;;5070550;28;20028;-60
2021/11/20 02:08:21;;;;;;;17.80;12.82;;;;;;;;;;5069238;28;20051;-67
2021/11/20 02:11:11;;;;;;;17.83;12.15;;;;;;;;;;5068506;28;20436;-63
2021/11/20 02:13:56;;;;;;;;;;;;;;;;;;5069977;28;20028;-61
2021/11/20 02:16:45;;;;;;;17.05;12.15;;;;;;;;;;5067336;28;19915;-63
2021/11/20 02:19:33;;;;;;;16.42;11.82;;;;;;;;;;5069618;28;20115;-62
2021/11/20 02:22:38;;;;;;;17.98;12.60;;;;;;;;;;5071423;28;20058;-63
2021/11/20 02:25:23;;;;;;;18.00;12.55;;;;;;;;;;5068834;28;20054;-64
2021/11/20 02:28:09;;;;;;;19.17;13.93;;;;;;;;;;5069384;28;20475;-66
2021/11/20 02:30:54;;;;;;;18.15;12.93;;;;;;;;;;5068077;28;20491;-67
2021/11/20 02:33:40;;;;;;;18.45;13.60;;;;;;;;;;5076925;28;20052;-68
2021/11/20 02:36:25;;;;;;;21.35;14.80;;;;;;;;;;5070360;28;20024;-66
2021/11/20 02:39:17;;;;;;;20.65;14.75;;;;;;;;;;5069102;28;20126;-64
2021/11/20 02:42:04;;;;;;;20.45;13.23;;;;;;;;;;5060926;28;20078;-65
2021/11/20 02:44:50;;;;;;;17.80;13.20;;;;;;;;;;5068964;28;20032;-67
2021/11/20 02:47:37;;;;;;;17.00;12.02;;;;;;;;;;5069815;28;20086;-67
2021/11/20 02:50:33;;;;;;;18.10;12.55;;;;;;;;;;5060357;28;20033;-68
2021/11/20 02:53:26;;;;;;;19.63;14.15;;;;;;;;;;5068040;28;20123;-68
2021/11/20 02:56:13;;;;;;;19.48;13.05;;;;;;;;;;5067533;28;20020;-71
2021/11/20 02:58:59;;;;;;;20.50;14.43;;;;;;;;;;5067833;28;20273;-71
2021/11/20 03:01:45;;;;;;;19.08;13.63;;;;;;;;;;5068926;28;20427;-60
2021/11/20 03:04:31;;;;;;;19.13;13.40;;;;;;;;;;5064884;28;20044;-62
2021/11/20 03:07:16;;;;;;;18.13;13.52;;;;;;;;;;5068930;28;20021;-60
2021/11/20 03:10:04;;;;;;;19.30;13.40;;;;;;;;;;5059679;28;20028;-59
2021/11/20 03:12:50;;;;;;;19.92;13.23;;;;;;;;;;5069305;28;20044;-59
2021/11/20 03:15:35;;;;;;;19.63;12.88;;;;;;;;;;5053452;28;20032;-59
2021/11/20 03:18:21;;;;;;;21.17;14.82;;;;;;;;;;5053975;28;20028;-58
2021/11/20 03:21:07;;;;;;;18.35;12.70;;;;;;;;;;5064292;28;20389;-61
2021/11/20 03:23:53;;;;;;;20.65;14.02;;;;;;;;;;5068890;28;20025;-62
2021/11/20 03:26:38;;;;;;;21.27;14.48;;;;;;;;;;5070554;28;20372;-61
2021/11/20 03:29:25;;;;;;;19.73;13.63;;;;;;;;;;5062987;28;20120;-62
2021/11/20 03:32:10;;;;;;;20.92;13.90;;;;;;;;;;5067521;28;20064;-61
2021/11/20 03:34:56;;;;;;;20.83;13.55;;;;;;;;;;5041796;28;20044;-60
2021/11/20 03:37:41;;;;;;;21.83;14.30;;;;;;;;;;5065899;28;20368;-60
2021/11/20 03:40:27;;;;;;;20.05;14.00;;;;;;;;;;5035557;28;20032;-65
2021/11/20 03:43:13;;;;;;;22.38;14.82;;;;;;;;;;5067748;28;20036;-64
2021/11/20 03:45:58;;;;;;;23.80;15.02;;;;;;;;;;5067048;28;20494;-65
2021/11/20 03:48:43;;;;;;;24.77;14.85;;;;;;;;;;5064861;28;20138;-65
2021/11/20 03:51:29;;;;;;;21.35;14.38;;;;;;;;;;5066848;28;20032;-65
2021/11/20 03:54:15;;;;;;;21.15;14.20;;;;;;;;;;5065751;28;20032;-65
2021/11/20 03:57:00;;;;;;;21.98;15.18;;;;;;;;;;5061554;28;20028;-59
2021/11/20 03:59:47;;;;;;;22.83;15.38;;;;;;;;;;5067428;28;20365;-64
2021/11/20 04:02:33;;;;;;;23.85;14.32;;;;;;;;;;5067375;28;20415;-68
2021/11/20 04:05:19;;;;;;;22.92;15.65;;;;;;;;;;5052988;28;20044;-67
2021/11/20 04:08:04;;;;;;;23.23;15.60;;;;;;;;;;5066524;28;20031;-64
2021/11/20 04:10:50;;;;;;;24.70;16.08;;;;;;;;;;5066674;28;20082;-63
2021/11/20 04:13:37;;;;;;;22.85;14.65;;;;;;;;;;5059715;28;20037;-62
2021/11/20 04:16:23;;;;;;;25.63;15.15;;;;;;;;;;5066248;28;20032;-66
2021/11/20 04:19:09;;;;;;;24.42;15.48;;;;;;;;;;5068644;28;20043;-59
2021/11/20 04:21:54;;;;;;;22.40;14.85;;;;;;;;;;5066676;28;20030;-61
2021/11/20 04:24:39;;;;;;;25.13;16.63;;;;;;;;;;5067735;28;20036;-60
2021/11/20 04:27:24;;;;;;;22.60;15.98;;;;;;;;;;5080400;28;20399;-60
2021/11/20 04:30:12;;;;;;;22.55;14.07;;;;;;;;;;5068161;28;20082;-63
2021/11/20 04:32:57;;;;;;;21.45;14.35;;;;;;;;;;5066879;28;20044;-59
2021/11/20 04:35:43;;;;;;;26.00;14.43;;;;;;;;;;5067607;28;20499;-60
2021/11/20 04:38:28;;;;;;;19.95;14.23;;;;;;;;;;5067440;28;20036;-65
2021/11/20 04:41:14;;;;;;;23.38;15.73;;;;;;;;;;5066725;28;20091;-65
2021/11/20 04:43:59;;;;;;;23.80;14.30;;;;;;;;;;5081089;28;20039;-60
2021/11/20 04:46:45;;;;;;;20.15;12.65;;;;;;;;;;5067799;28;20035;-63
2021/11/20 04:49:30;;;;;;;20.08;13.20;;;;;;;;;;5066625;28;20109;-62
2021/11/20 04:52:15;;;;;;;19.85;14.30;;;;;;;;;;5052784;28;20028;-62
2021/11/20 04:55:02;;;;;;;20.70;13.02;;;;;;;;;;5066495;28;20622;-60
2021/11/20 04:57:47;;;;;;;19.80;13.63;;;;;;;;;;5067665;28;20353;-64
2021/11/20 05:00:38;;;;;;;21.48;13.32;;;;;;;;;;5067556;28;20033;-63
2021/11/20 05:03:24;;;;;;;20.75;12.32;;;;;;;;;;5052858;28;20033;-61
2021/11/20 05:06:09;;;;;;;19.75;12.48;;;;;;;;;;5066792;28;20423;-61
2021/11/20 05:08:59;;;;;;;19.02;12.93;;;;;;;;;;5060577;28;20036;-62
2021/11/20 05:11:45;;;;;;;21.95;12.95;;;;;;;;;;5067636;28;20606;-62
2021/11/20 05:14:30;;;;;;;20.52;12.10;;;;;;;;;;5067056;28;20055;-66
2021/11/20 05:17:16;;;;;;;20.88;13.20;;;;;;;;;;5068890;28;20032;-64
2021/11/20 05:20:01;;;;;;;19.33;12.88;;;;;;;;;;5066818;28;20024;-65
2021/11/20 05:22:46;;;;;;;19.25;12.48;;;;;;;;;;5068263;28;20118;-66
2021/11/20 05:25:32;;;;;;;18.58;11.50;;;;;;;;;;5069891;28;20028;-66
2021/11/20 05:28:18;;;;;;;21.15;13.32;;;;;;;;;;5069077;28;20103;-67
2021/11/20 05:31:03;;;;;;;18.80;12.00;;;;;;;;;;5066844;28;20036;-61
2021/11/20 05:33:51;;;;;;;23.15;12.70;;;;;;;;;;5070484;28;20354;-63
2021/11/20 05:36:37;;;;;;;22.25;12.93;;;;;;;;;;5071103;28;20112;-63
2021/11/20 05:39:22;;;;;;;21.92;12.68;;;;;;;;;;5070190;28;20058;-63
2021/11/20 05:42:07;;;;;;;16.23;10.85;;;;;;;;;;5051780;28;20032;-66
2021/11/20 05:44:53;;;;;;;19.48;11.98;;;;;;;;;;5066400;28;20033;-64
2021/11/20 05:47:38;;;;;;;17.95;11.38;;;;;;;;;;5070788;28;20048;-61
2021/11/20 05:50:24;;;;;;;17.58;11.25;;;;;;;;;;5068150;28;20468;-69
2021/11/20 05:53:11;;;;;;;19.20;12.57;;;;;;;;;;5068466;28;20073;-68
2021/11/20 05:55:57;;;;;;;19.50;12.10;;;;;;;;;;5069838;28;20352;-68
2021/11/20 05:58:43;;;;;;;20.77;11.57;;;;;;;;;;5070726;28;20056;-68
2021/11/20 06:01:28;;;;;;;18.92;11.77;;;;;;;;;;5070167;28;20119;-71
2021/11/20 06:04:14;;;;;;;19.10;12.48;;;;;;;;;;5070610;28;20033;-70
2021/11/20 06:06:59;;;;;;;20.08;12.10;;;;;;;;;;5061419;28;20031;-60
2021/11/20 06:09:44;;;;;;;19.48;12.65;;;;;;;;;;5070443;28;20028;-61
2021/11/20 06:12:29;;;;;;;21.08;11.90;;;;;;;;;;5068537;28;20504;-65
2021/11/20 06:15:15;;;;;;;17.20;11.15;;;;;;;;;;5069933;28;20109;-66
2021/11/20 06:18:00;;;;;;;18.85;11.20;;;;;;;;;;5068277;28;20055;-62
2021/11/20 06:20:46;;;;;;;18.65;10.35;;;;;;;;;;5069885;28;20035;-63
2021/11/20 06:23:32;;;;;;;16.85;9.82;;;;;;;;;;5069584;28;20032;-63
2021/11/20 06:26:17;;;;;;;19.15;11.15;;;;;;;;;;5069517;28;20036;-69
2021/11/20 06:29:03;;;;;;;18.42;11.05;;;;;;;;;;5056290;28;20153;-63
2021/11/20 06:31:49;;;;;;;15.32;9.20;;;;;;;;;;5068047;28;20063;-63
2021/11/20 06:34:34;;;;;;;20.13;10.40;;;;;;;;;;5069450;28;20016;-62
2021/11/20 06:37:20;;;;;;;19.23;10.80;;;;;;;;;;5068178;28;20759;-62
2021/11/20 06:40:08;;;;;;;17.00;10.70;;;;;;;;;;5069833;28;20025;-63
2021/11/20 06:42:53;;;;;;;21.00;12.23;;;;;;;;;;5057066;28;20040;-59
2021/11/20 06:45:40;;;;;;;15.20;9.90;;;;;;;;;;5069422;28;20039;-62
2021/11/20 06:48:25;;;;;;;15.10;10.10;;;;;;;;;;5060109;28;20036;-63
2021/11/20 06:51:11;;;;;;;15.88;10.38;;;;;;;;;;5069387;28;20033;-66
2021/11/20 06:53:56;;;;;;;18.98;10.13;;;;;;;;;;5068174;28;20537;-65
2021/11/20 06:56:52;;;;;;;16.38;10.40;;;;;;;;;;5068716;28;20115;-63
2021/11/20 07:02:32;;;;;;;34.38;23.15;;;;;;;;;;5069303;28;20606;-58
2021/11/20 07:05:20;;;;;;;19.67;13.15;;;;;;;;;;5068401;28;20020;-64
2021/11/20 07:08:05;;;;;;;16.63;10.18;;;;;;;;;;5067914;28;20028;-63
2021/11/20 07:10:51;;;;;;;16.05;10.82;;;;;;;;;;5068300;28;20479;-63
2021/11/20 07:13:36;;;;;;;21.38;11.60;;;;;;;;;;5067052;28;20060;-59
2021/11/20 07:16:23;;;;;;;17.30;10.88;;;;;;;;;;5062858;28;20048;-63
2021/11/20 07:19:09;;;;;;;16.75;9.65;;;;;;;;;;5067729;28;20494;-64
2021/11/20 07:21:54;;;;;;;16.35;11.00;;;;;;;;;;5083052;28;20086;-67
2021/11/20 07:24:39;;;;;;;18.77;11.02;;;;;;;;;;5067950;28;20078;-69
2021/11/20 07:27:24;;;;;;;17.70;10.85;;;;;;;;;;5082419;28;20031;-67
2021/11/20 07:30:10;;;;;;;37.25;25.40;;;;;;;;;;5053705;28;20032;-67
2021/11/20 07:32:56;;;;;;;20.95;14.07;;;;;;;;;;5074674;28;20084;-66
2021/11/20 07:35:46;;;;;;;19.17;11.90;;;;;;;;;;5067828;28;20407;-66
2021/11/20 07:38:31;;;;;;;;;;;;;;;;;;5068322;28;20024;-64
2021/11/20 07:41:16;;;;;;;19.42;11.43;;;;;;;;;;5066483;28;19909;-71
2021/11/20 07:44:01;;;;;;;21.45;9.80;;;;;;;;;;5064861;28;20433;-71
2021/11/20 07:46:46;;;;;;;17.20;11.35;;;;;;;;;;5068026;28;20078;-69
2021/11/20 07:49:32;;;;;;;21.33;12.15;;;;;;;;;;5065499;28;20070;-70
2021/11/20 07:52:17;;;;;;;18.73;11.60;;;;;;;;;;5080623;28;20058;-70
2021/11/20 07:55:03;;;;;;;17.42;11.77;;;;;;;;;;5065891;28;20165;-69
2021/11/20 07:57:48;;;;;;;17.08;10.98;;;;;;;;;;5082292;28;20060;-60
2021/11/20 08:00:34;;;;;;;18.40;11.70;;;;;;;;;;5075500;28;20025;-60
2021/11/20 08:03:20;;;;;;;21.17;12.23;;;;;;;;;;5068235;28;20403;-62
2021/11/20 08:06:05;;;;;;;18.40;11.57;;;;;;;;;;5065426;28;20028;-61
2021/11/20 08:08:51;;;;;;;19.05;11.25;;;;;;;;;;5068025;28;20028;-60
2021/11/20 08:11:38;;;;;;;17.65;11.63;;;;;;;;;;5065113;28;20036;-61
2021/11/20 08:14:23;;;;;;;19.35;11.43;;;;;;;;;;5081322;28;20476;-72
2021/11/20 08:17:10;;;;;;;17.70;12.48;;;;;;;;;;5066028;28;20462;-68
2021/11/20 08:19:55;;;;;;;16.63;10.88;;;;;;;;;;5067771;28;20159;-67
2021/11/20 08:22:41;;;;;;;19.00;12.35;;;;;;;;;;5063415;28;20111;-65
2021/11/20 08:25:27;;;;;;;19.27;12.40;;;;;;;;;;5065582;28;20086;-66
2021/11/20 08:28:14;;;;;;;18.48;12.05;;;;;;;;;;5067140;28;20020;-69
2021/11/20 08:30:59;;;;;;;19.33;10.98;;;;;;;;;;5079033;28;20475;-67
2021/11/20 08:33:44;;;;;;;19.33;12.45;;;;;;;;;;5080567;28;20048;-61
2021/11/20 08:36:30;;;;;;;19.20;11.73;;;;;;;;;;5067150;28;20452;-62
2021/11/20 08:39:16;;;;;;;21.75;13.25;;;;;;;;;;5068758;28;20032;-59
2021/11/20 08:42:01;;;;;;;18.90;12.18;;;;;;;;;;5065957;28;20044;-59
2021/11/20 08:44:47;;;;;;;35.83;25.63;;;;;;;;;;5065119;28;20037;-61
2021/11/20 08:47:32;;;;;;;45.47;31.92;;;;;;;;;;5065272;28;20037;-61
2021/11/20 08:50:20;;;;;;;23.85;16.35;;;;;;;;;;5068089;28;20579;-59
2021/11/20 08:53:05;;;;;;;18.35;12.25;;;;;;;;;;5063752;28;20040;-63
2021/11/20 08:55:51;;;;;;;18.55;11.93;;;;;;;;;;5067531;28;20039;-63
2021/11/20 08:58:36;;;;;;;19.95;12.95;;;;;;;;;;5068570;28;20534;-62
2021/11/20 09:01:33;;;;;;;17.77;11.95;;;;;;;;;;5069727;28;20032;-61
2021/11/20 09:04:24;;;;;;;16.55;11.00;;;;;;;;;;5071495;28;20033;-65
2021/11/20 09:07:16;;;;;;;14.40;9.85;;;;;;;;;;5069190;28;20020;-65
2021/11/20 09:10:07;;;;;;;14.50;9.40;;;;;;;;;;5070793;28;20033;-63
2021/11/20 09:12:58;;;;;;;14.90;9.63;;;;;;;;;;5065698;28;20532;-61
2021/11/20 09:15:46;;;;;;;15.30;9.85;;;;;;;;;;5086134;28;20032;-63
2021/11/20 09:18:32;;;;;;;16.55;9.63;;;;;;;;;;5076576;28;20025;-63
2021/11/20 09:21:18;;;;;;;15.00;8.30;;;;;;;;;;5072520;28;20097;-60
2021/11/20 09:24:03;;;;;;;14.77;8.65;;;;;;;;;;5070240;28;20462;-62
2021/11/20 09:26:48;;;;;;;20.42;10.70;;;;;;;;;;5070306;28;20471;-61
2021/11/20 09:29:34;;;;;;;14.15;9.43;;;;;;;;;;5070087;28;20036;-61
2021/11/20 09:32:20;;;;;;;17.48;9.77;;;;;;;;;;5083847;28;20079;-59
2021/11/20 09:35:05;;;;;;;16.63;9.82;;;;;;;;;;5067924;28;20553;-60
2021/11/20 09:37:51;;;;;;;13.57;8.95;;;;;;;;;;5082069;28;20535;-59
2021/11/20 09:40:39;;;;;;;14.63;8.35;;;;;;;;;;5067681;28;20487;-61
2021/11/20 09:43:28;;;;;;;13.27;8.70;;;;;;;;;;5066494;28;20120;-62
2021/11/20 09:46:17;;;;;;;17.95;9.63;;;;;;;;;;5083157;28;20107;-63
2021/11/20 09:49:09;;;;;;;15.52;9.77;;;;;;;;;;5084082;28;20036;-69
2021/11/20 09:51:56;;;;;;;28.90;21.17;;;;;;;;;;5083886;28;20077;-69
2021/11/20 09:54:43;;;;;;;16.75;9.82;;;;;;;;;;5067940;28;20029;-67
2021/11/20 09:57:34;;;;;;;12.13;8.15;;;;;;;;;;5056748;28;20028;-69
2021/11/20 10:00:48;;;;;;;12.32;7.10;;;;;;;;;;5069262;28;20035;-69
2021/11/20 10:03:36;;;;;;;14.20;6.57;;;;;;;;;;5065426;28;20475;-66
2021/11/20 10:06:29;;;;;;;20.40;11.20;;;;;;;;;;5066358;28;20051;-62
2021/11/20 10:09:24;;;;;;;9.57;5.95;;;;;;;;;;5067107;28;20479;-62
2021/11/20 10:12:13;;;;;;;11.23;6.28;;;;;;;;;;5060906;28;20074;-61
2021/11/20 10:15:01;;;;;;;9.25;5.38;;;;;;;;;;5070380;28;20028;-65
2021/11/20 10:17:46;;;;;;;10.48;5.80;;;;;;;;;;5071323;28;20040;-61
2021/11/20 10:20:39;;;;;;;9.00;4.95;;;;;;;;;;5067830;28;20099;-63
2021/11/20 10:23:37;;;;;;;9.10;4.75;;;;;;;;;;5062658;28;20028;-68
2021/11/20 10:26:23;;;;;;;7.77;3.90;;;;;;;;;;5065598;28;20024;-66
2021/11/20 10:29:27;;;;;;;10.07;5.47;;;;;;;;;;5082140;28;20514;-66
2021/11/20 10:32:14;;;;;;;10.13;5.13;;;;;;;;;;5067846;28;20312;-68
2021/11/20 10:35:19;;;;;;;11.45;4.25;;;;;;;;;;5053689;28;20107;-68
2021/11/20 10:38:05;;;;;;;12.32;4.03;;;;;;;;;;5067964;28;20036;-66
2021/11/20 10:41:02;;;;;;;9.05;4.68;;;;;;;;;;5067725;28;20557;-65
2021/11/20 10:43:49;;;;;;;6.90;3.90;;;;;;;;;;5080635;28;20032;-59
2021/11/20 10:46:47;;;;;;;7.20;3.95;;;;;;;;;;5068416;28;20020;-63
2021/11/20 10:49:52;;;;;;;9.80;4.10;;;;;;;;;;5064781;28;20032;-65
2021/11/20 10:52:49;;;;;;;5.53;3.70;;;;;;;;;;5067857;28;20391;-66
2021/11/20 10:55:41;;;;;;;6.45;4.22;;;;;;;;;;5081937;28;20029;-64
2021/11/20 10:58:29;;;;;;;9.30;3.97;;;;;;;;;;5066629;28;20036;-65
2021/11/20 11:01:33;;;;;;;6.68;4.00;;;;;;;;;;5068724;28;20028;-62
2021/11/20 11:04:21;;;;;;;8.50;4.35;;;;;;;;;;5066536;28;20024;-65
2021/11/20 11:07:27;;;;;;;7.55;3.85;;;;;;;;;;5082285;28;20025;-67
2021/11/20 11:10:18;;;;;;;8.05;3.47;;;;;;;;;;5078812;28;20043;-65
2021/11/20 11:13:10;;;;;;;8.32;4.85;;;;;;;;;;5078000;28;20040;-67
2021/11/20 11:16:04;;;;;;;6.20;3.45;;;;;;;;;;5068826;28;20024;-68
2021/11/20 11:18:52;;;;;;;6.40;3.92;;;;;;;;;;5064210;28;20063;-69
2021/11/20 11:21:56;;;;;;;5.63;3.53;;;;;;;;;;5082739;28;20028;-63
2021/11/20 11:24:49;;;;;;;8.63;4.18;;;;;;;;;;5063757;28;20024;-63
2021/11/20 11:27:56;;;;;;;6.47;3.85;;;;;;;;;;5081385;28;20034;-59
2021/11/20 11:31:00;;;;;;;8.57;4.60;;;;;;;;;;5066609;28;20025;-65
2021/11/20 11:33:54;;;;;;;6.78;4.13;;;;;;;;;;5079684;28;20047;-65
2021/11/20 11:36:42;;;;;;;7.60;4.90;;;;;;;;;;5066775;28;20032;-61
2021/11/20 11:39:37;;;;;;;5.88;3.75;;;;;;;;;;5061438;28;20036;-61
2021/11/20 11:42:29;;;;;;;7.25;4.22;;;;;;;;;;5080529;28;20024;-61
2021/11/20 11:45:30;;;;;;;7.97;4.25;;;;;;;;;;5061006;28;20229;-61
2021/11/20 11:48:34;;;;;;;9.82;4.50;;;;;;;;;;5061385;28;20119;-61
2021/11/20 11:51:40;;;;;;;7.75;4.35;;;;;;;;;;5067856;28;20093;-62
2021/11/20 11:55:00;;;;;;;7.60;4.78;;;;;;;;;;5067341;28;20025;-64
2021/11/20 11:57:46;;;;;;;9.23;4.88;;;;;;;;;;5013576;28;20033;-66
2021/11/20 12:00:34;;;;;;;6.82;4.32;;;;;;;;;;5066983;28;20178;-61
2021/11/20 12:03:29;;;;;;;8.00;4.55;;;;;;;;;;5082215;28;20541;-63
2021/11/20 12:06:14;;;;;;;14.32;5.80;;;;;;;;;;5077074;28;20622;-61
2021/11/20 12:09:23;;;;;;;10.38;5.70;;;;;;;;;;5068426;28;20090;-60
2021/11/20 12:12:11;;;;;;;10.13;5.90;;;;;;;;;;5054590;28;20504;-62
2021/11/20 12:15:20;;;;;;;9.95;5.97;;;;;;;;;;5063475;28;20028;-63
2021/11/20 12:18:12;;;;;;;11.32;5.65;;;;;;;;;;5066063;28;20471;-64
2021/11/20 12:21:01;;;;;;;11.68;6.68;;;;;;;;;;5067098;28;20040;-65
2021/11/20 12:23:58;;;;;;;12.32;6.10;;;;;;;;;;5068087;28;20111;-66
2021/11/20 12:26:47;;;;;;;22.17;6.88;;;;;;;;;;5066784;28;20494;-65
2021/11/20 12:30:02;;;;;;;11.27;6.65;;;;;;;;;;5066620;28;20549;-66
2021/11/20 12:32:53;;;;;;;11.38;6.82;;;;;;;;;;5019913;28;20097;-68
2021/11/20 12:35:59;;;;;;;10.70;6.47;;;;;;;;;;5068952;28;20017;-61
2021/11/20 12:38:48;;;;;;;14.13;6.55;;;;;;;;;;5084909;28;20029;-61
2021/11/20 12:41:52;;;;;;;12.27;7.10;;;;;;;;;;5081181;28;20028;-61
2021/11/20 12:44:56;;;;;;;9.75;6.10;;;;;;;;;;5067453;28;20038;-61
2021/11/20 12:47:48;;;;;;;10.95;6.05;;;;;;;;;;5083469;28;20035;-63
2021/11/20 12:50:51;;;;;;;11.48;6.40;;;;;;;;;;5067795;28;20375;-61
2021/11/20 12:53:49;;;;;;;11.38;6.72;;;;;;;;;;5084694;28;20040;-71
2021/11/20 12:56:39;;;;;;;13.48;6.65;;;;;;;;;;5068183;28;20099;-69
2021/11/20 12:59:27;;;;;;;11.82;6.28;;;;;;;;;;5072695;28;20039;-68
2021/11/20 13:02:28;;;;;;;12.68;6.75;;;;;;;;;;5081671;28;20039;-71
2021/11/20 13:05:16;;;;;;;12.63;6.40;;;;;;;;;;5085862;28;20034;-70
2021/11/20 13:08:03;;;;;;;10.52;5.70;;;;;;;;;;5070881;28;20044;-71
2021/11/20 13:10:48;;;;;;;9.52;5.95;;;;;;;;;;5057467;28;20109;-64
2021/11/20 13:13:44;;;;;;;11.35;6.70;;;;;;;;;;5084081;28;20383;-66
2021/11/20 13:16:35;;;;;;;9.82;6.40;;;;;;;;;;5072086;28;20038;-64
2021/11/20 13:19:23;;;;;;;10.65;6.68;;;;;;;;;;5069192;28;20058;-67
2021/11/20 13:22:13;;;;;;;13.70;7.53;;;;;;;;;;5070101;28;20032;-68
2021/11/20 13:25:00;;;;;;;13.32;8.00;;;;;;;;;;5082978;28;20040;-67
2021/11/20 13:27:53;;;;;;;14.43;7.35;;;;;;;;;;5069941;28;20249;-66
2021/11/20 13:30:41;;;;;;;12.45;7.35;;;;;;;;;;5084840;28;20069;-63
2021/11/20 13:33:28;;;;;;;16.55;7.45;;;;;;;;;;5068161;28;20057;-63
2021/11/20 13:36:14;;;;;;;13.02;8.05;;;;;;;;;;5082450;28;20020;-62
2021/11/20 13:39:00;;;;;;;13.40;7.75;;;;;;;;;;5059597;28;20024;-64
2021/11/20 13:41:54;;;;;;;11.80;6.82;;;;;;;;;;5079805;28;20477;-64
2021/11/20 13:44:40;;;;;;;13.75;8.52;;;;;;;;;;5081317;28;20029;-63
2021/11/20 13:47:25;;;;;;;10.90;6.90;;;;;;;;;;5070916;28;20040;-63
2021/11/20 13:50:10;;;;;;;12.25;6.68;;;;;;;;;;5069612;28;20032;-62
2021/11/20 13:52:56;;;;;;;11.07;6.50;;;;;;;;;;5084267;28;20067;-61
2021/11/20 13:55:48;;;;;;;14.07;7.35;;;;;;;;;;5067402;28;20458;-62
2021/11/20 13:58:35;;;;;;;12.75;7.47;;;;;;;;;;5070243;28;20107;-63
2021/11/20 14:01:20;;;;;;;13.38;8.02;;;;;;;;;;5080197;28;20056;-63
2021/11/20 14:04:05;;;;;;;11.45;6.82;;;;;;;;;;5068817;28;20062;-69
2021/11/20 14:07:01;;;;;;;15.63;7.65;;;;;;;;;;5079200;28;20029;-59
2021/11/20 14:09:48;;;;;;;11.13;6.00;;;;;;;;;;5066309;28;20032;-65
2021/11/20 14:12:39;;;;;;;10.30;6.07;;;;;;;;;;5083190;28;20044;-63
2021/11/20 14:15:25;;;;;;;12.57;7.40;;;;;;;;;;5068972;28;20056;-62
2021/11/20 14:18:10;;;;;;;12.00;6.50;;;;;;;;;;5083510;28;20039;-65
2021/11/20 14:21:00;;;;;;;11.80;6.40;;;;;;;;;;5057916;28;20752;-61
2021/11/20 14:24:15;;;;;;;9.73;6.13;;;;;;;;;;5069533;28;20036;-61
2021/11/20 14:27:01;;;;;;;10.18;6.55;;;;;;;;;;5056947;28;20479;-69
2021/11/20 14:29:47;;;;;;;9.85;6.63;;;;;;;;;;5069157;28;20043;-70
2021/11/20 14:32:33;;;;;;;11.10;6.97;;;;;;;;;;5067978;28;20059;-69
2021/11/20 14:35:18;;;;;;;12.40;7.35;;;;;;;;;;5081277;28;20031;-71
2021/11/20 14:38:04;;;;;;;10.50;6.72;;;;;;;;;;5068728;28;20163;-68
2021/11/20 14:40:50;;;;;;;9.80;5.88;;;;;;;;;;5067932;28;20109;-59
2021/11/20 14:43:35;;;;;;;10.75;7.00;;;;;;;;;;5069744;28;20032;-64
2021/11/20 14:46:21;;;;;;;10.20;6.63;;;;;;;;;;5069082;28;20029;-66
2021/11/20 14:49:08;;;;;;;11.38;6.63;;;;;;;;;;5075653;28;20024;-64
2021/11/20 14:51:53;;;;;;;10.70;6.50;;;;;;;;;;5083743;28;20422;-62
2021/11/20 14:54:38;;;;;;;9.50;6.15;;;;;;;;;;5067117;28;20032;-65
2021/11/20 14:57:25;;;;;;;10.43;6.47;;;;;;;;;;5081526;28;20027;-63
2021/11/20 15:00:11;;;;;;;10.93;7.25;;;;;;;;;;5069856;28;20023;-62
2021/11/20 15:02:57;;;;;;;9.68;6.70;;;;;;;;;;5081231;28;20565;-62
2021/11/20 15:05:42;;;;;;;12.10;6.75;;;;;;;;;;5069100;28;20035;-65
2021/11/20 15:08:28;;;;;;;9.57;6.63;;;;;;;;;;5067606;28;20490;-64
2021/11/20 15:11:13;;;;;;;10.02;6.53;;;;;;;;;;5068025;28;20028;-62
2021/11/20 15:14:00;;;;;;;11.35;6.68;;;;;;;;;;5078353;28;20044;-62
2021/11/20 15:16:45;;;;;;;12.10;6.57;;;;;;;;;;5052322;28;20024;-67
2021/11/20 15:19:32;;;;;;;10.65;6.35;;;;;;;;;;5067295;28;20047;-63
2021/11/20 15:22:17;;;;;;;10.18;6.40;;;;;;;;;;5081014;28;20036;-59
2021/11/20 15:25:04;;;;;;;7.88;5.40;;;;;;;;;;5083131;28;20024;-58
2021/11/20 15:27:49;;;;;;;9.60;6.28;;;;;;;;;;5067169;28;20025;-61
2021/11/20 15:30:34;;;;;;;11.15;6.70;;;;;;;;;;5082679;28;20036;-62
2021/11/20 15:33:20;;;;;;;10.30;6.90;;;;;;;;;;5066471;28;20124;-61
2021/11/20 15:36:05;;;;;;;9.52;6.05;;;;;;;;;;5062996;28;20421;-63
2021/11/20 15:38:50;;;;;;;11.55;7.05;;;;;;;;;;5063527;28;20433;-63
2021/11/20 15:41:36;;;;;;;10.68;6.65;;;;;;;;;;5082487;28;20063;-61
2021/11/20 15:44:23;;;;;;;13.07;6.00;;;;;;;;;;5066977;28;20036;-62
2021/11/20 15:47:08;;;;;;;10.13;6.35;;;;;;;;;;5067439;28;20032;-62
2021/11/20 15:49:53;;;;;;;9.77;6.10;;;;;;;;;;5066116;28;20033;-64
2021/11/20 15:52:39;;;;;;;10.45;5.97;;;;;;;;;;5067046;28;20059;-61
2021/11/20 15:55:25;;;;;;;10.35;6.05;;;;;;;;;;5069766;28;20032;-65
2021/11/20 15:58:10;;;;;;;9.52;6.05;;;;;;;;;;5067148;28;20136;-62
2021/11/20 16:00:55;;;;;;;9.07;6.18;;;;;;;;;;5067752;28;20039;-60
2021/11/20 16:03:40;;;;;;;9.05;5.80;;;;;;;;;;5064441;28;20073;-60
2021/11/20 16:06:26;;;;;;;12.57;6.38;;;;;;;;;;5066905;28;20050;-59
2021/11/20 16:09:11;;;;;;;9.43;5.60;;;;;;;;;;5066079;28;20446;-62
2021/11/20 16:11:56;;;;;;;13.52;7.57;;;;;;;;;;5081581;28;20047;-60
2021/11/20 16:14:41;;;;;;;10.95;6.43;;;;;;;;;;5066795;28;20066;-64
2021/11/20 16:17:27;;;;;;;10.07;7.00;;;;;;;;;;5068833;28;20115;-65
2021/11/20 16:20:12;;;;;;;11.77;6.32;;;;;;;;;;5067535;28;20036;-65
2021/11/20 16:22:57;;;;;;;10.80;6.38;;;;;;;;;;5081077;28;20093;-66
2021/11/20 16:25:43;;;;;;;12.07;5.93;;;;;;;;;;5068668;28;20395;-66
2021/11/20 16:28:28;;;;;;;8.57;6.03;;;;;;;;;;5065660;28;20099;-65
2021/11/20 16:31:13;;;;;;;11.98;6.45;;;;;;;;;;5067398;28;20033;-62
2021/11/20 16:33:58;;;;;;;9.00;5.90;;;;;;;;;;5066773;28;20434;-66